sensor_id;sensor_type;location;lat;lon;timestamp;temperature;humidity
19847;DHT22;10084;50.518;8.588;2023-05-20T00:00:06;15.10;54.00
19847;DHT22;10084;50.518;8.588;2023-05-20T00:02:32;15.10;54.10
19847;DHT22;10084;50.518;8.588;2023-05-20T00:04:58;15.10;54.20
19847;DHT22;10084;50.518;8.588;2023-05-20T00:07:24;15.10;54.20
19847;DHT22;10084;50.518;8.588;2023-05-20T00:09:50;15.10;54.30
19847;DHT22;10084;50.518;8.588;2023-05-20T00:12:16;15.10;54.40
19847;DHT22;10084;50.518;8.588;2023-05-20T00:14:42;15.10;54.40
19847;DHT22;10084;50.518;8.588;2023-05-20T00:17:08;15.00;54.40
19847;DHT22;10084;50.518;8.588;2023-05-20T00:19:33;15.00;54.50
19847;DHT22;10084;50.518;8.588;2023-05-20T00:21:59;15.00;54.60
19847;DHT22;10084;50.518;8.588;2023-05-20T00:24:25;15.00;54.70
19847;DHT22;10084;50.518;8.588;2023-05-20T00:26:51;15.00;54.80
19847;DHT22;10084;50.518;8.588;2023-05-20T00:29:17;15.00;54.90
19847;DHT22;10084;50.518;8.588;2023-05-20T00:31:43;14.90;54.90
19847;DHT22;10084;50.518;8.588;2023-05-20T00:34:08;14.90;55.00
19847;DHT22;10084;50.518;8.588;2023-05-20T00:36:34;14.90;55.10
19847;DHT22;10084;50.518;8.588;2023-05-20T00:39:01;14.90;55.10
19847;DHT22;10084;50.518;8.588;2023-05-20T00:41:26;14.80;55.20
19847;DHT22;10084;50.518;8.588;2023-05-20T00:43:53;14.80;55.30
19847;DHT22;10084;50.518;8.588;2023-05-20T00:46:20;14.70;55.40
19847;DHT22;10084;50.518;8.588;2023-05-20T00:48:46;14.70;55.50
19847;DHT22;10084;50.518;8.588;2023-05-20T00:51:12;14.70;55.70
19847;DHT22;10084;50.518;8.588;2023-05-20T00:53:39;14.70;55.80
19847;DHT22;10084;50.518;8.588;2023-05-20T00:56:05;14.60;55.90
19847;DHT22;10084;50.518;8.588;2023-05-20T00:58:31;14.60;56.00
19847;DHT22;10084;50.518;8.588;2023-05-20T01:00:57;14.60;56.10
19847;DHT22;10084;50.518;8.588;2023-05-20T01:03:23;14.60;56.30
19847;DHT22;10084;50.518;8.588;2023-05-20T01:05:48;14.60;56.30
19847;DHT22;10084;50.518;8.588;2023-05-20T01:08:14;14.50;56.40
19847;DHT22;10084;50.518;8.588;2023-05-20T01:10:45;14.50;56.50
19847;DHT22;10084;50.518;8.588;2023-05-20T01:13:22;14.50;56.60
19847;DHT22;10084;50.518;8.588;2023-05-20T01:15:48;14.50;56.80
19847;DHT22;10084;50.518;8.588;2023-05-20T01:18:15;14.60;56.80
19847;DHT22;10084;50.518;8.588;2023-05-20T01:20:45;14.50;56.80
19847;DHT22;10084;50.518;8.588;2023-05-20T01:23:13;14.50;56.90
19847;DHT22;10084;50.518;8.588;2023-05-20T01:25:40;14.50;57.00
19847;DHT22;10084;50.518;8.588;2023-05-20T01:28:07;14.50;57.00
19847;DHT22;10084;50.518;8.588;2023-05-20T01:30:37;14.50;57.10
19847;DHT22;10084;50.518;8.588;2023-05-20T01:33:09;14.50;57.20
19847;DHT22;10084;50.518;8.588;2023-05-20T01:35:38;14.50;57.40
19847;DHT22;10084;50.518;8.588;2023-05-20T01:38:05;14.50;57.50
19847;DHT22;10084;50.518;8.588;2023-05-20T01:40:32;14.50;57.50
19847;DHT22;10084;50.518;8.588;2023-05-20T01:43:00;14.50;57.60
19847;DHT22;10084;50.518;8.588;2023-05-20T01:45:26;14.50;57.70
19847;DHT22;10084;50.518;8.588;2023-05-20T01:47:51;14.50;57.80
19847;DHT22;10084;50.518;8.588;2023-05-20T01:50:17;14.50;57.90
19847;DHT22;10084;50.518;8.588;2023-05-20T01:52:43;14.50;57.90
19847;DHT22;10084;50.518;8.588;2023-05-20T01:55:09;14.40;58.00
19847;DHT22;10084;50.518;8.588;2023-05-20T01:57:34;14.40;58.10
19847;DHT22;10084;50.518;8.588;2023-05-20T02:00:01;14.40;58.20
19847;DHT22;10084;50.518;8.588;2023-05-20T02:02:26;14.40;58.30
19847;DHT22;10084;50.518;8.588;2023-05-20T02:04:53;14.30;58.40
19847;DHT22;10084;50.518;8.588;2023-05-20T02:07:18;14.30;58.50
19847;DHT22;10084;50.518;8.588;2023-05-20T02:09:45;14.30;58.60
19847;DHT22;10084;50.518;8.588;2023-05-20T02:12:10;14.20;58.60
19847;DHT22;10084;50.518;8.588;2023-05-20T02:14:42;14.20;58.70
19847;DHT22;10084;50.518;8.588;2023-05-20T02:17:08;14.20;58.90
19847;DHT22;10084;50.518;8.588;2023-05-20T02:19:33;14.20;59.00
19847;DHT22;10084;50.518;8.588;2023-05-20T02:21:59;14.10;59.00
19847;DHT22;10084;50.518;8.588;2023-05-20T02:24:25;14.20;59.20
19847;DHT22;10084;50.518;8.588;2023-05-20T02:26:51;14.10;59.30
19847;DHT22;10084;50.518;8.588;2023-05-20T02:29:18;14.10;59.40
19847;DHT22;10084;50.518;8.588;2023-05-20T02:31:48;14.10;59.50
19847;DHT22;10084;50.518;8.588;2023-05-20T02:34:17;14.10;59.50
19847;DHT22;10084;50.518;8.588;2023-05-20T02:36:43;14.10;59.60
19847;DHT22;10084;50.518;8.588;2023-05-20T02:39:09;14.10;59.70
19847;DHT22;10084;50.518;8.588;2023-05-20T02:41:35;14.10;59.80
19847;DHT22;10084;50.518;8.588;2023-05-20T02:44:00;14.10;59.90
19847;DHT22;10084;50.518;8.588;2023-05-20T02:46:29;14.10;59.90
19847;DHT22;10084;50.518;8.588;2023-05-20T02:48:55;14.10;60.00
19847;DHT22;10084;50.518;8.588;2023-05-20T02:51:22;14.10;60.00
19847;DHT22;10084;50.518;8.588;2023-05-20T02:53:48;14.10;60.10
19847;DHT22;10084;50.518;8.588;2023-05-20T02:56:14;14.10;60.20
19847;DHT22;10084;50.518;8.588;2023-05-20T02:58:40;14.10;60.20
19847;DHT22;10084;50.518;8.588;2023-05-20T03:01:06;14.20;60.30
19847;DHT22;10084;50.518;8.588;2023-05-20T03:03:32;14.20;60.30
19847;DHT22;10084;50.518;8.588;2023-05-20T03:05:58;14.20;60.40
19847;DHT22;10084;50.518;8.588;2023-05-20T03:08:24;14.20;60.40
19847;DHT22;10084;50.518;8.588;2023-05-20T03:10:50;14.20;60.50
19847;DHT22;10084;50.518;8.588;2023-05-20T03:13:16;14.20;60.60
19847;DHT22;10084;50.518;8.588;2023-05-20T03:15:42;14.20;60.60
19847;DHT22;10084;50.518;8.588;2023-05-20T03:18:10;14.30;60.70
19847;DHT22;10084;50.518;8.588;2023-05-20T03:20:37;14.30;60.70
19847;DHT22;10084;50.518;8.588;2023-05-20T03:23:05;14.30;60.80
19847;DHT22;10084;50.518;8.588;2023-05-20T03:25:32;14.30;60.80
19847;DHT22;10084;50.518;8.588;2023-05-20T03:27:58;14.30;60.90
19847;DHT22;10084;50.518;8.588;2023-05-20T03:30:24;14.30;60.90
19847;DHT22;10084;50.518;8.588;2023-05-20T03:32:50;14.30;60.90
19847;DHT22;10084;50.518;8.588;2023-05-20T03:35:16;14.30;61.00
19847;DHT22;10084;50.518;8.588;2023-05-20T03:37:42;14.40;61.20
19847;DHT22;10084;50.518;8.588;2023-05-20T03:40:08;14.40;61.10
19847;DHT22;10084;50.518;8.588;2023-05-20T03:42:39;14.40;61.20
19847;DHT22;10084;50.518;8.588;2023-05-20T03:45:06;14.40;61.20
19847;DHT22;10084;50.518;8.588;2023-05-20T03:47:37;14.40;61.30
19847;DHT22;10084;50.518;8.588;2023-05-20T03:50:03;14.40;61.30
19847;DHT22;10084;50.518;8.588;2023-05-20T03:52:30;14.40;61.30
19847;DHT22;10084;50.518;8.588;2023-05-20T03:54:56;14.40;61.40
19847;DHT22;10084;50.518;8.588;2023-05-20T03:57:21;14.40;61.40
19847;DHT22;10084;50.518;8.588;2023-05-20T03:59:47;14.40;61.40
19847;DHT22;10084;50.518;8.588;2023-05-20T04:02:13;14.40;61.50
19847;DHT22;10084;50.518;8.588;2023-05-20T04:04:39;14.40;61.60
19847;DHT22;10084;50.518;8.588;2023-05-20T04:07:10;14.40;61.70
19847;DHT22;10084;50.518;8.588;2023-05-20T04:09:37;14.40;61.80
19847;DHT22;10084;50.518;8.588;2023-05-20T04:12:04;14.40;61.80
19847;DHT22;10084;50.518;8.588;2023-05-20T04:14:30;14.40;61.80
19847;DHT22;10084;50.518;8.588;2023-05-20T04:16:58;14.40;61.80
19847;DHT22;10084;50.518;8.588;2023-05-20T04:19:24;14.40;61.90
19847;DHT22;10084;50.518;8.588;2023-05-20T04:21:53;14.40;62.10
19847;DHT22;10084;50.518;8.588;2023-05-20T04:24:19;14.40;62.00
19847;DHT22;10084;50.518;8.588;2023-05-20T04:26:50;14.40;62.00
19847;DHT22;10084;50.518;8.588;2023-05-20T04:29:17;14.40;62.10
19847;DHT22;10084;50.518;8.588;2023-05-20T04:31:45;14.40;62.20
19847;DHT22;10084;50.518;8.588;2023-05-20T04:34:11;14.50;62.20
19847;DHT22;10084;50.518;8.588;2023-05-20T04:36:37;14.50;62.20
19847;DHT22;10084;50.518;8.588;2023-05-20T04:39:03;14.50;62.20
19847;DHT22;10084;50.518;8.588;2023-05-20T04:41:32;14.50;62.20
19847;DHT22;10084;50.518;8.588;2023-05-20T04:43:59;14.50;62.20
19847;DHT22;10084;50.518;8.588;2023-05-20T04:46:26;14.50;62.20
19847;DHT22;10084;50.518;8.588;2023-05-20T04:48:52;14.60;62.30
19847;DHT22;10084;50.518;8.588;2023-05-20T04:51:19;14.60;62.40
19847;DHT22;10084;50.518;8.588;2023-05-20T04:53:44;14.60;62.40
19847;DHT22;10084;50.518;8.588;2023-05-20T04:56:10;14.60;62.50
19847;DHT22;10084;50.518;8.588;2023-05-20T04:58:36;14.70;62.50
19847;DHT22;10084;50.518;8.588;2023-05-20T05:01:02;14.80;62.60
19847;DHT22;10084;50.518;8.588;2023-05-20T05:03:28;14.80;62.50
19847;DHT22;10084;50.518;8.588;2023-05-20T05:05:56;14.80;62.60
19847;DHT22;10084;50.518;8.588;2023-05-20T05:08:22;14.90;62.60
19847;DHT22;10084;50.518;8.588;2023-05-20T05:10:50;14.90;62.60
19847;DHT22;10084;50.518;8.588;2023-05-20T05:13:16;15.00;62.60
19847;DHT22;10084;50.518;8.588;2023-05-20T05:15:41;15.10;62.70
19847;DHT22;10084;50.518;8.588;2023-05-20T05:18:07;15.10;62.50
19847;DHT22;10084;50.518;8.588;2023-05-20T05:20:35;15.10;62.40
19847;DHT22;10084;50.518;8.588;2023-05-20T05:23:00;15.10;62.40
19847;DHT22;10084;50.518;8.588;2023-05-20T05:25:26;15.20;63.20
19847;DHT22;10084;50.518;8.588;2023-05-20T05:27:52;15.10;62.40
19847;DHT22;10084;50.518;8.588;2023-05-20T05:30:20;15.10;62.40
19847;DHT22;10084;50.518;8.588;2023-05-20T05:32:48;15.10;62.50
19847;DHT22;10084;50.518;8.588;2023-05-20T05:35:14;15.10;62.50
19847;DHT22;10084;50.518;8.588;2023-05-20T05:37:40;15.20;62.60
19847;DHT22;10084;50.518;8.588;2023-05-20T05:40:06;15.20;62.60
19847;DHT22;10084;50.518;8.588;2023-05-20T05:42:33;15.20;62.60
19847;DHT22;10084;50.518;8.588;2023-05-20T05:45:00;15.10;62.70
19847;DHT22;10084;50.518;8.588;2023-05-20T05:47:26;15.10;62.70
19847;DHT22;10084;50.518;8.588;2023-05-20T05:49:57;15.10;62.80
19847;DHT22;10084;50.518;8.588;2023-05-20T05:52:25;15.10;62.80
19847;DHT22;10084;50.518;8.588;2023-05-20T05:54:51;15.10;62.90
19847;DHT22;10084;50.518;8.588;2023-05-20T05:57:17;15.20;63.00
19847;DHT22;10084;50.518;8.588;2023-05-20T05:59:43;15.20;63.00
19847;DHT22;10084;50.518;8.588;2023-05-20T06:02:08;15.10;62.90
19847;DHT22;10084;50.518;8.588;2023-05-20T06:04:35;15.10;63.00
19847;DHT22;10084;50.518;8.588;2023-05-20T06:07:01;15.10;63.10
19847;DHT22;10084;50.518;8.588;2023-05-20T06:09:27;15.10;63.10
19847;DHT22;10084;50.518;8.588;2023-05-20T06:11:53;15.10;63.20
19847;DHT22;10084;50.518;8.588;2023-05-20T06:14:19;15.10;63.20
19847;DHT22;10084;50.518;8.588;2023-05-20T06:16:45;15.10;63.20
19847;DHT22;10084;50.518;8.588;2023-05-20T06:19:11;15.10;63.30
19847;DHT22;10084;50.518;8.588;2023-05-20T06:21:37;15.20;63.40
19847;DHT22;10084;50.518;8.588;2023-05-20T06:24:03;15.20;63.40
19847;DHT22;10084;50.518;8.588;2023-05-20T06:26:30;15.20;63.40
19847;DHT22;10084;50.518;8.588;2023-05-20T06:28:56;15.30;63.40
19847;DHT22;10084;50.518;8.588;2023-05-20T06:31:22;15.30;63.40
19847;DHT22;10084;50.518;8.588;2023-05-20T06:33:48;15.40;63.40
19847;DHT22;10084;50.518;8.588;2023-05-20T06:36:14;15.40;63.40
19847;DHT22;10084;50.518;8.588;2023-05-20T06:38:39;15.40;63.30
19847;DHT22;10084;50.518;8.588;2023-05-20T06:41:05;15.50;63.40
19847;DHT22;10084;50.518;8.588;2023-05-20T06:43:31;15.50;63.40
19847;DHT22;10084;50.518;8.588;2023-05-20T06:46:08;15.60;63.50
19847;DHT22;10084;50.518;8.588;2023-05-20T06:48:37;15.70;63.50
19847;DHT22;10084;50.518;8.588;2023-05-20T06:51:07;15.80;63.40
19847;DHT22;10084;50.518;8.588;2023-05-20T06:53:37;15.90;63.40
19847;DHT22;10084;50.518;8.588;2023-05-20T06:56:02;16.00;63.20
19847;DHT22;10084;50.518;8.588;2023-05-20T06:58:28;16.00;63.20
19847;DHT22;10084;50.518;8.588;2023-05-20T07:00:55;16.10;63.20
19847;DHT22;10084;50.518;8.588;2023-05-20T07:03:22;16.20;63.20
19847;DHT22;10084;50.518;8.588;2023-05-20T07:05:49;16.30;63.00
19847;DHT22;10084;50.518;8.588;2023-05-20T07:08:17;16.40;62.90
19847;DHT22;10084;50.518;8.588;2023-05-20T07:10:43;16.40;62.90
19847;DHT22;10084;50.518;8.588;2023-05-20T07:13:09;16.50;62.80
19847;DHT22;10084;50.518;8.588;2023-05-20T07:15:35;16.50;62.80
19847;DHT22;10084;50.518;8.588;2023-05-20T07:18:00;16.60;62.60
19847;DHT22;10084;50.518;8.588;2023-05-20T07:20:26;16.60;62.60
19847;DHT22;10084;50.518;8.588;2023-05-20T07:22:52;16.60;62.60
19847;DHT22;10084;50.518;8.588;2023-05-20T07:25:27;16.50;62.60
19847;DHT22;10084;50.518;8.588;2023-05-20T07:27:53;16.60;62.70
19847;DHT22;10084;50.518;8.588;2023-05-20T07:30:19;16.60;62.70
19847;DHT22;10084;50.518;8.588;2023-05-20T07:32:55;16.70;62.80
19847;DHT22;10084;50.518;8.588;2023-05-20T07:35:20;16.70;62.70
19847;DHT22;10084;50.518;8.588;2023-05-20T07:37:46;16.80;62.70
19847;DHT22;10084;50.518;8.588;2023-05-20T07:40:13;16.80;62.50
19847;DHT22;10084;50.518;8.588;2023-05-20T07:42:38;16.80;62.50
19847;DHT22;10084;50.518;8.588;2023-05-20T07:45:05;16.90;62.60
19847;DHT22;10084;50.518;8.588;2023-05-20T07:47:32;16.90;62.60
19847;DHT22;10084;50.518;8.588;2023-05-20T07:49:58;16.90;62.50
19847;DHT22;10084;50.518;8.588;2023-05-20T07:52:24;17.00;62.50
19847;DHT22;10084;50.518;8.588;2023-05-20T07:54:50;17.00;62.50
19847;DHT22;10084;50.518;8.588;2023-05-20T07:57:16;17.00;62.50
19847;DHT22;10084;50.518;8.588;2023-05-20T07:59:41;17.00;62.40
19847;DHT22;10084;50.518;8.588;2023-05-20T08:02:07;17.10;62.40
19847;DHT22;10084;50.518;8.588;2023-05-20T08:04:34;17.10;62.40
19847;DHT22;10084;50.518;8.588;2023-05-20T08:07:00;17.10;62.30
19847;DHT22;10084;50.518;8.588;2023-05-20T08:09:46;17.10;62.30
19847;DHT22;10084;50.518;8.588;2023-05-20T08:12:12;17.10;62.30
19847;DHT22;10084;50.518;8.588;2023-05-20T08:14:39;17.10;62.30
19847;DHT22;10084;50.518;8.588;2023-05-20T08:17:05;17.10;62.30
19847;DHT22;10084;50.518;8.588;2023-05-20T08:19:30;17.10;62.50
19847;DHT22;10084;50.518;8.588;2023-05-20T08:21:56;17.10;62.50
19847;DHT22;10084;50.518;8.588;2023-05-20T08:24:22;17.10;62.50
19847;DHT22;10084;50.518;8.588;2023-05-20T08:26:48;17.10;62.70
19847;DHT22;10084;50.518;8.588;2023-05-20T08:29:15;17.10;62.90
19847;DHT22;10084;50.518;8.588;2023-05-20T08:31:41;17.20;63.40
19847;DHT22;10084;50.518;8.588;2023-05-20T08:34:07;17.20;63.70
19847;DHT22;10084;50.518;8.588;2023-05-20T08:36:33;17.20;64.00
19847;DHT22;10084;50.518;8.588;2023-05-20T08:38:59;17.30;67.50
19847;DHT22;10084;50.518;8.588;2023-05-20T08:41:24;17.50;67.40
19847;DHT22;10084;50.518;8.588;2023-05-20T08:43:52;17.60;67.80
19847;DHT22;10084;50.518;8.588;2023-05-20T08:46:19;17.80;66.40
19847;DHT22;10084;50.518;8.588;2023-05-20T08:48:47;17.90;65.10
19847;DHT22;10084;50.518;8.588;2023-05-20T08:51:15;18.10;64.40
19847;DHT22;10084;50.518;8.588;2023-05-20T08:53:40;18.30;63.90
19847;DHT22;10084;50.518;8.588;2023-05-20T08:56:07;18.50;63.00
19847;DHT22;10084;50.518;8.588;2023-05-20T08:58:34;18.60;62.10
19847;DHT22;10084;50.518;8.588;2023-05-20T09:01:00;18.70;62.00
19847;DHT22;10084;50.518;8.588;2023-05-20T09:03:26;18.70;61.80
19847;DHT22;10084;50.518;8.588;2023-05-20T09:05:53;18.70;61.90
19847;DHT22;10084;50.518;8.588;2023-05-20T09:08:23;18.70;61.90
19847;DHT22;10084;50.518;8.588;2023-05-20T09:10:51;18.70;62.00
19847;DHT22;10084;50.518;8.588;2023-05-20T09:13:17;18.60;61.70
19847;DHT22;10084;50.518;8.588;2023-05-20T09:15:42;18.60;61.60
19847;DHT22;10084;50.518;8.588;2023-05-20T09:18:08;18.40;61.80
19847;DHT22;10084;50.518;8.588;2023-05-20T09:20:35;18.30;62.00
19847;DHT22;10084;50.518;8.588;2023-05-20T09:23:03;18.30;62.20
19847;DHT22;10084;50.518;8.588;2023-05-20T09:25:29;18.30;61.60
19847;DHT22;10084;50.518;8.588;2023-05-20T09:27:55;18.30;62.20
19847;DHT22;10084;50.518;8.588;2023-05-20T09:30:21;18.20;62.10
19847;DHT22;10084;50.518;8.588;2023-05-20T09:32:57;18.20;62.40
19847;DHT22;10084;50.518;8.588;2023-05-20T09:35:24;18.10;62.50
19847;DHT22;10084;50.518;8.588;2023-05-20T09:37:55;18.10;62.60
19847;DHT22;10084;50.518;8.588;2023-05-20T09:40:28;18.10;62.60
19847;DHT22;10084;50.518;8.588;2023-05-20T09:43:05;18.20;62.90
19847;DHT22;10084;50.518;8.588;2023-05-20T09:45:32;18.20;62.90
19847;DHT22;10084;50.518;8.588;2023-05-20T09:48:00;18.20;63.10
19847;DHT22;10084;50.518;8.588;2023-05-20T09:50:27;18.20;63.30
19847;DHT22;10084;50.518;8.588;2023-05-20T09:52:53;18.20;63.70
19847;DHT22;10084;50.518;8.588;2023-05-20T09:55:23;18.10;64.10
19847;DHT22;10084;50.518;8.588;2023-05-20T09:57:49;18.40;76.10
19847;DHT22;10084;50.518;8.588;2023-05-20T10:00:16;19.30;76.60
19847;DHT22;10084;50.518;8.588;2023-05-20T10:02:51;20.70;72.10
19847;DHT22;10084;50.518;8.588;2023-05-20T10:05:20;21.90;78.30
19847;DHT22;10084;50.518;8.588;2023-05-20T10:16:23;22.40;66.50
19847;DHT22;10084;50.518;8.588;2023-05-20T10:18:59;22.00;67.50
19847;DHT22;10084;50.518;8.588;2023-05-20T10:21:31;21.70;68.20
19847;DHT22;10084;50.518;8.588;2023-05-20T10:24:05;21.40;72.10
19847;DHT22;10084;50.518;8.588;2023-05-20T10:26:35;21.20;71.30
19847;DHT22;10084;50.518;8.588;2023-05-20T10:29:01;21.00;71.90
19847;DHT22;10084;50.518;8.588;2023-05-20T10:31:44;20.80;71.70
19847;DHT22;10084;50.518;8.588;2023-05-20T10:34:17;20.60;72.70
19847;DHT22;10084;50.518;8.588;2023-05-20T10:37:01;20.50;82.90
19847;DHT22;10084;50.518;8.588;2023-05-20T10:39:28;20.40;70.10
19847;DHT22;10084;50.518;8.588;2023-05-20T10:42:07;20.30;67.50
19847;DHT22;10084;50.518;8.588;2023-05-20T10:44:44;20.10;66.60
19847;DHT22;10084;50.518;8.588;2023-05-20T10:47:10;19.90;66.40
19847;DHT22;10084;50.518;8.588;2023-05-20T10:49:43;19.80;66.10
19847;DHT22;10084;50.518;8.588;2023-05-20T10:52:10;19.70;66.30
19847;DHT22;10084;50.518;8.588;2023-05-20T10:54:57;19.60;66.30
19847;DHT22;10084;50.518;8.588;2023-05-20T10:57:26;19.50;66.00
19847;DHT22;10084;50.518;8.588;2023-05-20T10:59:52;19.50;66.40
19847;DHT22;10084;50.518;8.588;2023-05-20T11:02:18;19.40;67.10
19847;DHT22;10084;50.518;8.588;2023-05-20T11:04:48;19.40;67.20
19847;DHT22;10084;50.518;8.588;2023-05-20T11:07:27;19.30;66.70
19847;DHT22;10084;50.518;8.588;2023-05-20T11:09:54;19.30;66.90
19847;DHT22;10084;50.518;8.588;2023-05-20T11:12:23;19.30;67.10
19847;DHT22;10084;50.518;8.588;2023-05-20T11:14:49;19.20;66.90
19847;DHT22;10084;50.518;8.588;2023-05-20T11:17:15;19.20;67.00
19847;DHT22;10084;50.518;8.588;2023-05-20T11:19:42;19.10;67.40
19847;DHT22;10084;50.518;8.588;2023-05-20T11:22:08;19.10;67.30
19847;DHT22;10084;50.518;8.588;2023-05-20T11:24:34;19.10;67.50
19847;DHT22;10084;50.518;8.588;2023-05-20T11:27:00;19.20;68.10
19847;DHT22;10084;50.518;8.588;2023-05-20T11:29:27;19.30;69.30
19847;DHT22;10084;50.518;8.588;2023-05-20T11:31:53;19.40;69.50
19847;DHT22;10084;50.518;8.588;2023-05-20T11:34:20;19.50;70.40
19847;DHT22;10084;50.518;8.588;2023-05-20T11:36:47;19.50;71.30
19847;DHT22;10084;50.518;8.588;2023-05-20T11:39:15;19.60;69.60
19847;DHT22;10084;50.518;8.588;2023-05-20T11:41:41;19.80;69.40
19847;DHT22;10084;50.518;8.588;2023-05-20T11:44:09;20.10;70.00
19847;DHT22;10084;50.518;8.588;2023-05-20T11:46:42;20.30;68.60
19847;DHT22;10084;50.518;8.588;2023-05-20T11:49:09;20.70;67.20
19847;DHT22;10084;50.518;8.588;2023-05-20T11:51:36;21.00;66.70
19847;DHT22;10084;50.518;8.588;2023-05-20T11:54:04;21.30;66.40
19847;DHT22;10084;50.518;8.588;2023-05-20T11:56:31;21.50;65.40
19847;DHT22;10084;50.518;8.588;2023-05-20T11:58:59;21.70;65.70
19847;DHT22;10084;50.518;8.588;2023-05-20T12:01:25;21.80;65.90
19847;DHT22;10084;50.518;8.588;2023-05-20T12:03:52;21.90;65.70
19847;DHT22;10084;50.518;8.588;2023-05-20T12:06:18;22.10;65.40
19847;DHT22;10084;50.518;8.588;2023-05-20T12:08:44;22.20;65.20
19847;DHT22;10084;50.518;8.588;2023-05-20T12:11:11;22.30;64.50
19847;DHT22;10084;50.518;8.588;2023-05-20T12:13:36;22.30;64.70
19847;DHT22;10084;50.518;8.588;2023-05-20T12:16:02;22.10;64.80
19847;DHT22;10084;50.518;8.588;2023-05-20T12:18:31;22.00;65.40
19847;DHT22;10084;50.518;8.588;2023-05-20T12:20:58;21.80;66.40
19847;DHT22;10084;50.518;8.588;2023-05-20T12:23:23;21.70;66.20
19847;DHT22;10084;50.518;8.588;2023-05-20T12:25:49;21.60;65.70
19847;DHT22;10084;50.518;8.588;2023-05-20T12:28:15;21.50;66.00
19847;DHT22;10084;50.518;8.588;2023-05-20T12:30:42;21.40;66.00
19847;DHT22;10084;50.518;8.588;2023-05-20T12:33:08;21.30;67.90
19847;DHT22;10084;50.518;8.588;2023-05-20T12:35:38;21.20;67.90
19847;DHT22;10084;50.518;8.588;2023-05-20T12:38:05;21.20;70.00
19847;DHT22;10084;50.518;8.588;2023-05-20T12:40:32;21.10;79.00
19847;DHT22;10084;50.518;8.588;2023-05-20T12:42:59;21.10;79.90
19847;DHT22;10084;50.518;8.588;2023-05-20T12:45:25;21.00;78.90
19847;DHT22;10084;50.518;8.588;2023-05-20T12:47:51;21.00;70.80
19847;DHT22;10084;50.518;8.588;2023-05-20T12:50:17;21.10;66.30
19847;DHT22;10084;50.518;8.588;2023-05-20T12:52:42;21.20;65.10
19847;DHT22;10084;50.518;8.588;2023-05-20T12:55:08;21.30;64.40
19847;DHT22;10084;50.518;8.588;2023-05-20T12:57:39;21.50;64.40
19847;DHT22;10084;50.518;8.588;2023-05-20T13:00:09;21.50;64.50
19847;DHT22;10084;50.518;8.588;2023-05-20T13:02:36;21.50;64.40
19847;DHT22;10084;50.518;8.588;2023-05-20T13:05:02;21.40;63.40
19847;DHT22;10084;50.518;8.588;2023-05-20T13:07:28;21.40;62.80
19847;DHT22;10084;50.518;8.588;2023-05-20T13:09:53;21.30;63.20
19847;DHT22;10084;50.518;8.588;2023-05-20T13:12:19;21.20;63.90
19847;DHT22;10084;50.518;8.588;2023-05-20T13:14:45;21.30;63.20
19847;DHT22;10084;50.518;8.588;2023-05-20T13:17:11;21.20;63.10
19847;DHT22;10084;50.518;8.588;2023-05-20T13:19:37;21.10;63.00
19847;DHT22;10084;50.518;8.588;2023-05-20T13:22:03;21.10;62.90
19847;DHT22;10084;50.518;8.588;2023-05-20T13:24:30;21.10;62.80
19847;DHT22;10084;50.518;8.588;2023-05-20T13:26:56;21.00;63.10
19847;DHT22;10084;50.518;8.588;2023-05-20T13:29:22;21.00;63.40
19847;DHT22;10084;50.518;8.588;2023-05-20T13:31:48;21.00;63.00
19847;DHT22;10084;50.518;8.588;2023-05-20T13:34:14;21.00;62.70
19847;DHT22;10084;50.518;8.588;2023-05-20T13:36:39;21.00;62.10
19847;DHT22;10084;50.518;8.588;2023-05-20T13:39:05;21.00;62.60
19847;DHT22;10084;50.518;8.588;2023-05-20T13:41:31;21.10;63.30
19847;DHT22;10084;50.518;8.588;2023-05-20T13:43:57;21.20;63.10
19847;DHT22;10084;50.518;8.588;2023-05-20T13:46:23;21.30;62.70
19847;DHT22;10084;50.518;8.588;2023-05-20T13:48:49;21.40;62.70
19847;DHT22;10084;50.518;8.588;2023-05-20T13:51:14;21.30;62.50
19847;DHT22;10084;50.518;8.588;2023-05-20T13:53:40;21.30;62.90
19847;DHT22;10084;50.518;8.588;2023-05-20T13:56:06;21.20;63.10
19847;DHT22;10084;50.518;8.588;2023-05-20T13:58:37;21.10;63.50
19847;DHT22;10084;50.518;8.588;2023-05-20T14:01:04;20.90;64.10
19847;DHT22;10084;50.518;8.588;2023-05-20T14:03:31;20.90;63.50
19847;DHT22;10084;50.518;8.588;2023-05-20T14:05:58;20.80;63.40
19847;DHT22;10084;50.518;8.588;2023-05-20T14:08:24;20.80;63.40
19847;DHT22;10084;50.518;8.588;2023-05-20T14:10:50;20.80;63.40
19847;DHT22;10084;50.518;8.588;2023-05-20T14:13:20;20.70;63.20
19847;DHT22;10084;50.518;8.588;2023-05-20T14:15:46;20.60;63.30
19847;DHT22;10084;50.518;8.588;2023-05-20T14:18:12;20.60;63.60
19847;DHT22;10084;50.518;8.588;2023-05-20T14:20:37;20.60;63.60
19847;DHT22;10084;50.518;8.588;2023-05-20T14:23:03;20.60;63.60
19847;DHT22;10084;50.518;8.588;2023-05-20T14:25:29;20.60;63.70
19847;DHT22;10084;50.518;8.588;2023-05-20T14:27:54;20.60;63.60
19847;DHT22;10084;50.518;8.588;2023-05-20T14:30:20;20.50;64.10
19847;DHT22;10084;50.518;8.588;2023-05-20T14:32:46;20.60;64.30
19847;DHT22;10084;50.518;8.588;2023-05-20T14:35:12;20.60;64.10
19847;DHT22;10084;50.518;8.588;2023-05-20T14:37:37;20.60;64.40
19847;DHT22;10084;50.518;8.588;2023-05-20T14:40:03;20.50;64.50
19847;DHT22;10084;50.518;8.588;2023-05-20T14:42:30;20.60;65.20
19847;DHT22;10084;50.518;8.588;2023-05-20T14:44:55;20.70;65.00
19847;DHT22;10084;50.518;8.588;2023-05-20T14:47:21;20.80;65.10
19847;DHT22;10084;50.518;8.588;2023-05-20T14:49:47;20.80;64.40
19847;DHT22;10084;50.518;8.588;2023-05-20T14:52:15;20.70;64.60
19847;DHT22;10084;50.518;8.588;2023-05-20T14:54:41;20.60;64.50
19847;DHT22;10084;50.518;8.588;2023-05-20T14:57:07;20.40;65.30
19847;DHT22;10084;50.518;8.588;2023-05-20T14:59:33;20.30;65.90
19847;DHT22;10084;50.518;8.588;2023-05-20T15:01:58;20.20;65.90
19847;DHT22;10084;50.518;8.588;2023-05-20T15:04:24;20.10;66.30
19847;DHT22;10084;50.518;8.588;2023-05-20T15:06:50;20.10;66.70
19847;DHT22;10084;50.518;8.588;2023-05-20T15:09:16;20.20;66.80
19847;DHT22;10084;50.518;8.588;2023-05-20T15:11:43;20.20;67.00
19847;DHT22;10084;50.518;8.588;2023-05-20T15:14:08;20.20;66.70
19847;DHT22;10084;50.518;8.588;2023-05-20T15:16:34;20.30;69.10
19847;DHT22;10084;50.518;8.588;2023-05-20T15:19:00;20.30;70.70
19847;DHT22;10084;50.518;8.588;2023-05-20T15:21:26;20.30;76.80
19847;DHT22;10084;50.518;8.588;2023-05-20T15:23:51;20.30;77.90
19847;DHT22;10084;50.518;8.588;2023-05-20T15:26:17;20.30;76.10
19847;DHT22;10084;50.518;8.588;2023-05-20T15:28:43;20.40;78.60
19847;DHT22;10084;50.518;8.588;2023-05-20T15:31:09;20.30;72.70
19847;DHT22;10084;50.518;8.588;2023-05-20T15:33:34;20.30;72.10
19847;DHT22;10084;50.518;8.588;2023-05-20T15:36:00;20.30;68.50